createdAt,value
2022-12-29T00:02:30.518Z,17.48
2022-12-29T00:08:42.009Z,18.33
2022-12-29T00:15:02.870Z,16.95
2022-12-29T00:21:23.870Z,17.92
2022-12-29T00:27:46.562Z,18.73
2022-12-29T00:34:09.328Z,17.27
2022-12-29T00:40:30.131Z,19.15
2022-12-29T00:46:35.630Z,19.27
2022-12-29T00:52:37.848Z,18.27
2022-12-29T01:04:43.990Z,17.67
2022-12-29T01:10:46.124Z,18.02
2022-12-29T01:16:48.635Z,17.92
2022-12-29T01:22:52.013Z,19.52
2022-12-29T01:28:55.752Z,17.20
2022-12-29T01:34:58.421Z,19.48
2022-12-29T01:41:00.904Z,19.92
2022-12-29T01:53:11.344Z,19.03
2022-12-29T01:59:19.094Z,20.73
2022-12-29T02:05:53.932Z,18.50
2022-12-29T02:11:56.411Z,18.70
2022-12-29T02:18:33.747Z,19.55
2022-12-29T02:25:23.452Z,19.40
2022-12-29T02:32:02.201Z,17.33
2022-12-29T02:38:19.636Z,17.50
2022-12-29T02:44:51.491Z,20.05
2022-12-29T02:51:01.845Z,20.73
2022-12-29T02:57:03.994Z,18.58
2022-12-29T03:03:30.186Z,19.10
2022-12-29T03:09:56.111Z,18.40
2022-12-29T03:16:13.826Z,20.30
2022-12-29T03:22:28.903Z,21.90
2022-12-29T03:28:41.555Z,22.75
2022-12-29T03:34:46.030Z,23.40
2022-12-29T03:40:57.068Z,25.83
2022-12-29T03:47:01.160Z,23.95
2022-12-29T03:53:03.534Z,22.48
2022-12-29T03:59:06.744Z,21.67
2022-12-29T04:05:15.046Z,23.13
2022-12-29T04:11:17.604Z,23.33
2022-12-29T04:17:21.172Z,21.33
2022-12-29T04:23:26.496Z,20.63
2022-12-29T04:29:28.992Z,20.13
2022-12-29T04:35:51.766Z,19.33
2022-12-29T04:41:54.049Z,18.55
2022-12-29T04:47:57.290Z,19.95
2022-12-29T04:54:26.070Z,19.30
2022-12-29T05:00:40.975Z,20.27
2022-12-29T05:06:43.618Z,17.95
2022-12-29T05:12:46.260Z,19.15
2022-12-29T05:18:49.524Z,20.30
2022-12-29T05:24:51.697Z,24.13
2022-12-29T05:30:54.109Z,21.42
2022-12-29T05:36:56.247Z,22.15
2022-12-29T05:42:59.767Z,19.45
2022-12-29T05:49:15.281Z,21.55
2022-12-29T05:55:36.394Z,18.33
2022-12-29T06:01:39.142Z,22.00
2022-12-29T06:07:41.740Z,22.02
2022-12-29T06:13:44.116Z,19.27
2022-12-29T06:19:47.665Z,20.33
2022-12-29T06:25:50.037Z,59.83
2022-12-29T06:31:59.222Z,41.90
2022-12-29T06:38:02.343Z,34.70
2022-12-29T06:44:04.570Z,31.05
2022-12-29T06:50:25.070Z,20.67
2022-12-29T06:56:27.150Z,16.35
2022-12-29T07:02:29.334Z,16.95
2022-12-29T07:08:31.684Z,16.58
2022-12-29T07:14:37.424Z,17.38
2022-12-29T07:20:44.775Z,17.35
2022-12-29T07:26:46.805Z,16.83
2022-12-29T07:32:49.498Z,16.92
2022-12-29T07:38:51.580Z,17.75
2022-12-29T07:44:53.921Z,12.03
2022-12-29T07:51:08.834Z,20.90
2022-12-29T07:57:11.190Z,15.83
2022-12-29T08:03:13.337Z,14.88
2022-12-29T08:09:21.999Z,16.03
2022-12-29T08:15:30.521Z,16.02
2022-12-29T08:21:34.548Z,16.95
2022-12-29T08:27:36.806Z,15.13
2022-12-29T08:33:38.936Z,13.93
2022-12-29T08:39:41.036Z,14.70
2022-12-29T08:45:43.085Z,12.27
2022-12-29T08:51:45.264Z,8.47
2022-12-29T08:57:47.510Z,17.60
2022-12-29T09:04:14.231Z,11.23
2022-12-29T09:10:16.737Z,10.88
2022-12-29T09:16:19.737Z,8.15
2022-12-29T09:22:21.937Z,10.80
2022-12-29T09:28:24.630Z,11.80
2022-12-29T09:34:26.862Z,11.60
2022-12-29T09:40:32.428Z,9.70
2022-12-29T09:46:40.126Z,10.85
2022-12-29T09:52:51.224Z,10.30
2022-12-29T09:59:01.436Z,10.10
2022-12-29T10:05:03.822Z,10.65
2022-12-29T10:11:15.299Z,7.95
2022-12-29T10:17:47.523Z,8.93
2022-12-29T10:23:53.251Z,8.90
2022-12-29T10:30:00.663Z,9.07
2022-12-29T10:36:16.752Z,8.15
2022-12-29T10:42:39.297Z,6.72
2022-12-29T10:48:41.482Z,6.82
2022-12-29T10:54:52.688Z,7.25
2022-12-29T11:00:55.883Z,7.53
2022-12-29T11:06:58.955Z,6.45
2022-12-29T11:13:26.889Z,7.03
2022-12-29T11:19:36.114Z,7.47
2022-12-29T11:25:43.329Z,6.53
2022-12-29T11:31:47.856Z,8.02
2022-12-29T11:37:58.681Z,7.45
2022-12-29T11:44:06.230Z,7.03
2022-12-29T11:50:09.861Z,7.32
2022-12-29T11:56:15.433Z,7.55
2022-12-29T12:02:42.915Z,6.90
2022-12-29T12:08:52.855Z,6.38
2022-12-29T12:15:01.323Z,6.95
2022-12-29T12:21:23.194Z,7.38
2022-12-29T12:27:31.427Z,7.70
2022-12-29T12:33:40.207Z,7.30
2022-12-29T12:40:08.380Z,8.63
2022-12-29T12:46:19.558Z,8.55
2022-12-29T12:52:45.907Z,8.98
2022-12-29T12:58:56.951Z,7.72
2022-12-29T13:05:43.910Z,8.82
2022-12-29T13:12:07.919Z,9.52
2022-12-29T13:18:19.255Z,8.50
2022-12-29T13:24:42.229Z,7.65
2022-12-29T13:31:03.186Z,9.20
2022-12-29T13:37:12.101Z,7.07
2022-12-29T13:43:17.446Z,6.72
2022-12-29T13:49:25.790Z,6.40
2022-12-29T13:55:41.269Z,6.95
2022-12-29T14:01:55.996Z,6.85
2022-12-29T14:08:01.203Z,7.45
2022-12-29T14:14:24.587Z,6.88
2022-12-29T14:20:27.031Z,7.13
2022-12-29T14:26:32.067Z,8.73
2022-12-29T14:32:34.271Z,8.48
2022-12-29T14:38:46.742Z,7.00
2022-12-29T14:45:06.934Z,11.27
2022-12-29T14:51:30.209Z,11.95
2022-12-29T14:57:40.567Z,12.30
2022-12-29T15:03:55.801Z,11.95
2022-12-29T15:10:14.667Z,13.00
2022-12-29T15:16:31.570Z,14.50
2022-12-29T15:22:33.955Z,15.40
2022-12-29T15:28:41.917Z,15.52
2022-12-29T15:34:45.872Z,18.45
2022-12-29T15:40:48.391Z,17.02
2022-12-29T15:46:50.689Z,17.00
2022-12-29T15:52:52.974Z,19.20
2022-12-29T15:58:55.057Z,18.10
2022-12-29T16:11:26.047Z,16.88
2022-12-29T16:17:31.902Z,16.35
2022-12-29T16:23:37.874Z,16.17
2022-12-29T16:29:40.881Z,18.45
2022-12-29T16:35:48.255Z,19.73
2022-12-29T16:41:51.766Z,19.52
2022-12-29T16:48:06.245Z,19.90
2022-12-29T16:54:21.561Z,20.50
2022-12-29T17:00:26.925Z,20.90
2022-12-29T17:06:29.072Z,22.98
2022-12-29T17:12:31.677Z,21.85
2022-12-29T17:24:37.027Z,24.50
2022-12-29T17:30:41.152Z,27.88
2022-12-29T17:36:43.183Z,27.08
2022-12-29T17:42:49.795Z,18.47
2022-12-29T17:48:53.977Z,23.10
2022-12-29T17:54:56.732Z,22.10
2022-12-29T18:01:01.299Z,21.67
2022-12-29T18:07:10.977Z,22.70
2022-12-29T18:13:28.111Z,24.73
2022-12-29T18:19:36.093Z,25.23
2022-12-29T18:25:51.665Z,24.92
2022-12-29T18:31:53.884Z,24.13
2022-12-29T18:37:56.016Z,21.85
2022-12-29T18:43:59.652Z,23.33
2022-12-29T18:50:01.873Z,21.73
2022-12-29T18:56:04.400Z,22.08
2022-12-29T19:02:06.525Z,21.67
2022-12-29T19:08:09.610Z,22.45
2022-12-29T19:14:16.819Z,20.83
2022-12-29T19:20:40.234Z,23.10
2022-12-29T19:26:42.554Z,22.60
2022-12-29T19:32:44.689Z,21.75
2022-12-29T19:38:46.989Z,20.70
2022-12-29T19:44:49.168Z,26.08
2022-12-29T19:50:51.409Z,36.38
2022-12-29T19:56:53.502Z,31.58
2022-12-29T20:02:55.741Z,28.38
2022-12-29T20:08:58.142Z,22.45
2022-12-29T20:15:00.528Z,22.00
2022-12-29T20:21:04.919Z,34.85
2022-12-29T20:27:09.607Z,31.70
2022-12-29T20:33:11.751Z,25.63
2022-12-29T20:39:20.200Z,18.23
2022-12-29T20:45:22.333Z,26.20
2022-12-29T20:51:28.872Z,27.13
2022-12-29T20:57:49.681Z,25.95
2022-12-29T21:03:52.991Z,25.17
2022-12-29T21:09:55.156Z,26.88
2022-12-29T21:16:05.773Z,27.50
2022-12-29T21:22:07.877Z,25.48
2022-12-29T21:28:13.686Z,28.08
2022-12-29T21:34:15.888Z,24.45
2022-12-29T21:40:17.954Z,26.13
2022-12-29T21:46:23.393Z,21.63
2022-12-29T21:52:25.487Z,20.90
2022-12-29T21:58:46.179Z,22.53
2022-12-29T22:05:07.409Z,23.27
2022-12-29T22:11:28.140Z,22.58
2022-12-29T22:17:32.781Z,23.02
2022-12-29T22:23:38.654Z,24.55
2022-12-29T22:29:41.604Z,22.35
2022-12-29T22:35:43.711Z,23.48
2022-12-29T22:41:45.692Z,22.75
2022-12-29T22:47:47.795Z,17.38
2022-12-29T22:53:50.632Z,21.50
2022-12-29T22:59:52.789Z,23.15
2022-12-29T23:06:03.132Z,23.70
2022-12-29T23:12:05.410Z,22.58
2022-12-29T23:18:07.762Z,21.73
2022-12-29T23:24:14.143Z,23.98
2022-12-29T23:30:16.311Z,21.50
2022-12-29T23:36:18.822Z,22.08
2022-12-29T23:42:21.128Z,22.27
2022-12-29T23:48:23.380Z,22.35
2022-12-29T23:54:25.903Z,20.98
